createdAt,value
2023-05-05T00:01:33.299Z,44.52
2023-05-05T00:04:00.992Z,44.80
2023-05-05T00:06:31.444Z,44.78
2023-05-05T00:08:58.560Z,44.72
2023-05-05T00:11:26.163Z,45.07
2023-05-05T00:13:53.297Z,45.15
2023-05-05T00:16:20.492Z,45.17
2023-05-05T00:18:48.123Z,45.44
2023-05-05T00:21:15.828Z,45.21
2023-05-05T00:23:42.772Z,45.48
2023-05-05T00:26:09.747Z,45.49
2023-05-05T00:28:38.464Z,45.48
2023-05-05T00:31:05.768Z,45.48
2023-05-05T00:33:32.780Z,45.25
2023-05-05T00:35:59.848Z,45.74
2023-05-05T00:38:26.858Z,45.54
2023-05-05T00:40:53.854Z,45.89
2023-05-05T00:43:20.822Z,45.70
2023-05-05T00:45:53.228Z,45.78
2023-05-05T00:48:24.547Z,46.35
2023-05-05T00:50:52.077Z,46.21
2023-05-05T00:53:19.111Z,46.82
2023-05-05T00:55:46.738Z,46.58
2023-05-05T00:58:13.799Z,47.33
2023-05-05T01:00:40.817Z,47.52
2023-05-05T01:03:08.373Z,47.56
2023-05-05T01:06:08.412Z,48.65
2023-05-05T01:08:56.436Z,48.38
2023-05-05T01:11:38.768Z,48.52
2023-05-05T01:14:19.303Z,48.65
2023-05-05T01:17:12.275Z,48.71
2023-05-05T01:19:56.913Z,49.03
2023-05-05T01:22:33.872Z,48.37
2023-05-05T01:25:00.815Z,47.72
2023-05-05T01:28:09.662Z,49.67
2023-05-05T01:30:45.816Z,47.79
2023-05-05T01:33:16.690Z,48.24
2023-05-05T01:35:52.586Z,49.35
2023-05-05T01:38:25.600Z,48.56
2023-05-05T01:41:08.000Z,49.58
2023-05-05T01:43:37.400Z,48.50
2023-05-05T01:46:06.588Z,48.84
2023-05-05T01:48:33.968Z,48.64
2023-05-05T01:51:03.194Z,48.94
2023-05-05T01:53:31.462Z,49.07
2023-05-05T01:55:59.313Z,48.90
2023-05-05T01:58:29.214Z,49.37
2023-05-05T02:00:58.071Z,49.23
2023-05-05T02:03:27.030Z,49.40
2023-05-05T02:05:55.453Z,49.19
2023-05-05T02:08:23.619Z,49.19
2023-05-05T02:10:51.970Z,49.80
2023-05-05T02:13:20.908Z,49.36
2023-05-05T02:15:51.119Z,49.91
2023-05-05T02:18:19.472Z,49.56
2023-05-05T02:20:47.254Z,50.11
2023-05-05T02:23:14.325Z,49.67
2023-05-05T02:25:46.034Z,50.02
2023-05-05T02:28:23.395Z,50.72
2023-05-05T02:30:59.628Z,50.96
2023-05-05T02:33:32.625Z,50.37
2023-05-05T02:36:14.774Z,51.38
2023-05-05T02:39:01.323Z,51.20
2023-05-05T02:41:36.310Z,50.40
2023-05-05T02:44:09.901Z,50.83
2023-05-05T02:46:39.145Z,50.06
2023-05-05T02:49:06.457Z,50.57
2023-05-05T02:51:33.771Z,51.05
2023-05-05T02:54:05.336Z,51.24
2023-05-05T02:56:49.024Z,50.82
2023-05-05T02:59:26.529Z,51.96
2023-05-05T03:02:22.116Z,52.82
2023-05-05T03:04:55.079Z,51.88
2023-05-05T03:07:31.245Z,52.20
2023-05-05T03:10:14.153Z,52.81
2023-05-05T03:12:57.257Z,52.43
2023-05-05T03:15:36.217Z,52.66
2023-05-05T03:18:04.886Z,52.18
2023-05-05T03:20:32.553Z,51.97
2023-05-05T03:23:05.310Z,52.44
2023-05-05T03:25:46.765Z,53.51
2023-05-05T03:28:27.255Z,52.68
2023-05-05T03:30:56.034Z,52.44
2023-05-05T03:33:23.113Z,52.80
2023-05-05T03:35:50.183Z,52.86
2023-05-05T03:38:18.345Z,52.80
2023-05-05T03:40:46.024Z,53.08
2023-05-05T03:43:17.410Z,53.06
2023-05-05T03:45:44.535Z,52.58
2023-05-05T03:48:12.025Z,52.95
2023-05-05T03:50:40.876Z,53.31
2023-05-05T03:53:09.122Z,53.28
2023-05-05T03:55:37.039Z,52.95
2023-05-05T03:58:04.095Z,53.56
2023-05-05T04:00:32.296Z,52.93
2023-05-05T04:03:00.178Z,53.29
2023-05-05T04:05:27.188Z,53.27
2023-05-05T04:07:54.393Z,53.55
2023-05-05T04:10:21.653Z,53.11
2023-05-05T04:12:49.149Z,53.94
2023-05-05T04:15:16.846Z,53.56
2023-05-05T04:17:44.297Z,53.54
2023-05-05T04:20:11.547Z,53.62
2023-05-05T04:22:39.604Z,54.10
2023-05-05T04:25:07.396Z,54.67
2023-05-05T04:27:34.512Z,54.54
2023-05-05T04:30:01.981Z,54.58
2023-05-05T04:32:30.634Z,54.50
2023-05-05T04:34:57.609Z,53.92
2023-05-05T04:37:25.805Z,54.29
2023-05-05T04:39:53.160Z,54.00
2023-05-05T04:42:20.304Z,54.10
2023-05-05T04:44:47.366Z,53.53
2023-05-05T04:47:14.856Z,53.86
2023-05-05T04:49:42.623Z,53.25
2023-05-05T04:52:09.624Z,53.46
2023-05-05T04:54:37.545Z,53.98
2023-05-05T04:57:04.692Z,53.68
2023-05-05T04:59:31.936Z,53.54
2023-05-05T05:01:59.056Z,53.44
2023-05-05T05:04:27.374Z,53.66
2023-05-05T05:06:56.160Z,52.93
2023-05-05T05:09:24.502Z,53.26
2023-05-05T05:11:51.885Z,53.11
2023-05-05T05:14:19.118Z,52.76
2023-05-05T05:16:46.979Z,52.78
2023-05-05T05:19:14.461Z,53.16
2023-05-05T05:21:41.485Z,52.67
2023-05-05T05:24:08.586Z,53.10
2023-05-05T05:26:35.746Z,52.66
2023-05-05T05:29:04.862Z,52.51
2023-05-05T05:31:34.571Z,52.27
2023-05-05T05:34:02.593Z,52.13
2023-05-05T05:36:29.718Z,52.31
2023-05-05T05:38:56.785Z,52.55
2023-05-05T05:41:23.796Z,52.02
2023-05-05T05:43:50.849Z,52.17
2023-05-05T05:46:18.471Z,52.36
2023-05-05T05:48:46.829Z,52.07
2023-05-05T05:51:14.017Z,51.93
2023-05-05T05:53:41.863Z,51.83
2023-05-05T05:56:09.986Z,52.03
2023-05-05T05:58:37.687Z,51.95
2023-05-05T06:01:05.278Z,51.83
2023-05-05T06:03:32.506Z,51.75
2023-05-05T06:05:59.648Z,51.68
2023-05-05T06:08:27.040Z,51.57
2023-05-05T06:10:55.607Z,51.34
2023-05-05T06:13:22.673Z,51.48
2023-05-05T06:15:51.980Z,51.46
2023-05-05T06:18:19.334Z,51.34
2023-05-05T06:20:49.851Z,51.56
2023-05-05T06:23:18.338Z,51.30
2023-05-05T06:25:51.001Z,51.04
2023-05-05T06:28:18.856Z,51.06
2023-05-05T06:30:45.862Z,50.86
2023-05-05T06:33:13.043Z,51.18
2023-05-05T06:35:39.989Z,50.88
2023-05-05T06:38:07.326Z,51.17
2023-05-05T06:40:34.654Z,50.86
2023-05-05T06:43:01.649Z,50.93
2023-05-05T06:45:34.934Z,50.82
2023-05-05T06:48:01.924Z,51.11
2023-05-05T06:50:29.182Z,51.06
2023-05-05T06:52:56.196Z,50.66
2023-05-05T06:55:23.777Z,50.60
2023-05-05T06:57:50.769Z,50.25
2023-05-05T07:00:18.756Z,50.35
2023-05-05T07:02:47.673Z,50.24
2023-05-05T07:05:15.048Z,49.81
2023-05-05T07:07:55.460Z,49.43
2023-05-05T07:10:23.916Z,49.79
2023-05-05T07:12:52.083Z,49.47
2023-05-05T07:15:27.392Z,49.58
2023-05-05T07:17:57.168Z,49.80
2023-05-05T07:20:24.655Z,50.04
2023-05-05T07:22:51.733Z,49.57
2023-05-05T07:25:18.827Z,49.17
2023-05-05T07:27:46.008Z,49.48
2023-05-05T07:30:16.557Z,49.42
2023-05-05T07:32:46.096Z,49.43
2023-05-05T07:35:13.737Z,49.52
2023-05-05T07:37:40.663Z,49.65
2023-05-05T07:40:08.426Z,49.69
2023-05-05T07:42:36.096Z,50.02
2023-05-05T07:45:03.723Z,50.06
2023-05-05T07:47:30.926Z,50.39
2023-05-05T07:49:58.226Z,50.37
2023-05-05T07:52:43.301Z,50.62
2023-05-05T07:55:12.152Z,50.86
2023-05-05T07:57:39.514Z,51.15
2023-05-05T08:00:07.303Z,50.71
2023-05-05T08:02:40.321Z,50.84
2023-05-05T08:05:08.225Z,50.79
2023-05-05T08:07:36.791Z,50.58
2023-05-05T08:10:03.874Z,50.97
2023-05-05T08:12:30.955Z,50.89
2023-05-05T08:14:58.165Z,50.66
2023-05-05T08:17:27.153Z,50.90
2023-05-05T08:19:54.350Z,50.85
2023-05-05T08:22:22.263Z,50.83
2023-05-05T08:24:49.241Z,51.33
2023-05-05T08:27:16.178Z,51.31
2023-05-05T08:29:43.227Z,51.44
2023-05-05T08:32:10.328Z,52.01
2023-05-05T08:34:37.277Z,52.18
2023-05-05T08:37:04.215Z,52.32
2023-05-05T08:39:31.302Z,52.75
2023-05-05T08:41:58.347Z,53.40
2023-05-05T08:44:27.205Z,53.12
2023-05-05T08:46:55.267Z,53.69
2023-05-05T08:49:23.128Z,53.39
2023-05-05T08:51:52.436Z,53.67
2023-05-05T08:54:20.670Z,53.63
2023-05-05T08:56:53.269Z,53.58
2023-05-05T08:59:25.272Z,53.58
2023-05-05T09:01:53.573Z,53.49
2023-05-05T09:04:20.884Z,53.30
2023-05-05T09:06:48.092Z,53.00
2023-05-05T09:09:15.117Z,52.42
2023-05-05T09:11:43.137Z,52.46
2023-05-05T09:16:54.586Z,52.40
2023-05-05T09:19:21.799Z,52.40
2023-05-05T09:21:49.614Z,52.31
2023-05-05T09:24:16.742Z,52.88
2023-05-05T09:26:45.749Z,52.85
2023-05-05T09:29:19.703Z,53.10
2023-05-05T09:32:10.941Z,52.77
2023-05-05T09:34:38.194Z,52.00
2023-05-05T09:37:06.358Z,52.54
2023-05-05T09:39:33.511Z,52.33
2023-05-05T09:42:01.472Z,51.71
2023-05-05T09:44:36.175Z,51.55
2023-05-05T09:47:07.201Z,51.04
2023-05-05T09:49:39.429Z,50.75
2023-05-05T09:52:17.846Z,50.60
2023-05-05T09:54:44.988Z,50.58
2023-05-05T09:57:33.435Z,50.38
2023-05-05T10:00:04.553Z,50.24
2023-05-05T10:02:38.421Z,50.52
2023-05-05T10:05:10.063Z,50.58
2023-05-05T10:07:39.014Z,50.22
2023-05-05T10:10:08.583Z,50.39
2023-05-05T10:12:37.247Z,50.64
2023-05-05T10:15:06.823Z,50.76
2023-05-05T10:18:02.301Z,50.72
2023-05-05T10:20:34.350Z,51.03
2023-05-05T10:23:04.308Z,51.22
2023-05-05T10:25:39.362Z,50.96
2023-05-05T10:28:08.414Z,50.56
2023-05-05T10:30:43.412Z,50.52
2023-05-05T10:33:31.009Z,50.31
2023-05-05T10:36:01.793Z,49.56
2023-05-05T10:38:32.861Z,49.11
2023-05-05T10:41:01.282Z,48.96
2023-05-05T10:43:30.824Z,48.55
2023-05-05T10:45:59.022Z,48.29
2023-05-05T10:48:38.143Z,47.33
2023-05-05T10:51:39.281Z,47.09
2023-05-05T10:54:17.100Z,47.72
2023-05-05T10:56:44.212Z,47.68
2023-05-05T10:59:40.139Z,48.22
2023-05-05T11:02:31.638Z,48.40
2023-05-05T11:05:22.177Z,48.29
2023-05-05T11:07:51.299Z,48.62
2023-05-05T11:10:23.879Z,48.80
2023-05-05T11:13:05.978Z,48.93
2023-05-05T11:15:37.555Z,49.04
2023-05-05T11:18:07.825Z,49.35
2023-05-05T11:20:35.530Z,49.39
2023-05-05T11:23:02.510Z,49.16
2023-05-05T11:25:35.918Z,49.37
2023-05-05T11:28:10.022Z,49.37
2023-05-05T11:30:59.010Z,49.06
2023-05-05T11:33:31.989Z,48.45
2023-05-05T11:36:12.811Z,48.25
2023-05-05T11:38:39.718Z,48.47
2023-05-05T11:41:34.201Z,47.84
2023-05-05T11:44:19.736Z,47.30
2023-05-05T11:46:52.672Z,47.34
2023-05-05T11:49:31.427Z,46.58
2023-05-05T11:52:05.589Z,46.86
2023-05-05T11:54:34.606Z,46.65
2023-05-05T11:57:05.218Z,46.74
2023-05-05T11:59:32.888Z,46.80
2023-05-05T12:02:00.871Z,47.03
2023-05-05T12:04:28.126Z,46.84
2023-05-05T12:06:55.605Z,46.57
2023-05-05T12:09:23.984Z,46.42
2023-05-05T12:11:54.212Z,45.51
2023-05-05T12:14:22.397Z,44.83
2023-05-05T12:16:59.333Z,43.59
2023-05-05T12:19:30.330Z,44.44
2023-05-05T12:21:57.444Z,42.92
2023-05-05T12:24:24.567Z,42.16
2023-05-05T12:26:52.047Z,41.51
2023-05-05T12:29:26.424Z,39.39
2023-05-05T12:31:53.852Z,41.10
2023-05-05T12:34:21.820Z,40.61
2023-05-05T12:36:49.127Z,40.80
2023-05-05T12:39:16.350Z,40.44
2023-05-05T12:41:43.548Z,41.03
2023-05-05T12:44:10.843Z,41.15
2023-05-05T12:46:48.727Z,39.26
2023-05-05T12:49:17.713Z,39.36
2023-05-05T12:51:57.091Z,36.81
2023-05-05T12:54:25.256Z,37.62
2023-05-05T12:56:52.406Z,38.02
2023-05-05T12:59:22.600Z,38.40
2023-05-05T13:01:51.748Z,38.71
2023-05-05T13:04:21.171Z,39.62
2023-05-05T13:06:49.628Z,39.84
2023-05-05T13:09:35.794Z,38.68
2023-05-05T13:12:03.900Z,39.37
2023-05-05T13:14:36.857Z,37.67
2023-05-05T13:17:04.060Z,37.83
2023-05-05T13:19:31.265Z,36.56
2023-05-05T13:21:59.090Z,35.65
2023-05-05T13:24:42.135Z,34.62
2023-05-05T13:27:13.967Z,34.27
2023-05-05T13:29:41.863Z,33.63
2023-05-05T13:32:08.856Z,33.32
2023-05-05T13:34:36.008Z,32.85
2023-05-05T13:37:03.022Z,32.58
2023-05-05T13:39:29.978Z,31.85
2023-05-05T13:41:56.994Z,31.13
2023-05-05T13:44:24.349Z,31.22
2023-05-05T13:46:51.618Z,31.70
2023-05-05T13:49:18.672Z,31.36
2023-05-05T13:51:47.109Z,30.95
2023-05-05T13:54:14.697Z,30.62
2023-05-05T13:56:41.955Z,30.71
2023-05-05T13:59:09.359Z,30.50
2023-05-05T14:01:36.540Z,29.67
2023-05-05T14:04:05.470Z,29.15
2023-05-05T14:06:33.930Z,28.71
2023-05-05T14:09:01.119Z,28.88
2023-05-05T14:11:28.292Z,28.98
2023-05-05T14:13:57.629Z,29.61
2023-05-05T14:16:24.962Z,30.68
2023-05-05T14:18:52.567Z,30.87
2023-05-05T14:21:19.560Z,31.34
2023-05-05T14:23:46.651Z,31.98
2023-05-05T14:26:13.891Z,31.50
2023-05-05T14:28:41.065Z,32.08
2023-05-05T14:31:08.028Z,31.82
2023-05-05T14:33:35.506Z,32.04
2023-05-05T14:36:02.584Z,31.74
2023-05-05T14:38:30.045Z,32.17
2023-05-05T14:40:57.269Z,31.45
2023-05-05T14:43:24.431Z,31.45
2023-05-05T14:45:52.532Z,31.42
2023-05-05T14:48:22.584Z,30.73
2023-05-05T14:50:50.164Z,30.12
2023-05-05T14:53:19.126Z,29.57
2023-05-05T14:55:46.231Z,29.22
2023-05-05T14:58:13.339Z,28.67
2023-05-05T15:00:40.601Z,28.22
2023-05-05T15:03:07.772Z,27.74
2023-05-05T15:05:35.443Z,27.72
2023-05-05T15:08:02.515Z,28.40
2023-05-05T15:10:29.617Z,28.84
2023-05-05T15:12:56.709Z,29.26
2023-05-05T15:15:24.820Z,29.45
2023-05-05T15:17:52.638Z,30.14
2023-05-05T15:20:19.783Z,30.05
2023-05-05T15:22:49.006Z,29.56
2023-05-05T15:25:18.924Z,29.37
2023-05-05T15:27:47.011Z,28.62
2023-05-05T15:30:14.467Z,28.06
2023-05-05T15:32:41.988Z,27.95
2023-05-05T15:35:09.365Z,28.28
2023-05-05T15:37:37.894Z,28.99
2023-05-05T15:40:06.130Z,29.35
2023-05-05T15:42:34.054Z,29.18
2023-05-05T15:45:01.667Z,28.61
2023-05-05T15:47:31.240Z,28.16
2023-05-05T15:49:58.176Z,27.96
2023-05-05T15:52:25.298Z,27.81
2023-05-05T15:54:52.391Z,28.39
2023-05-05T15:57:19.378Z,28.85
2023-05-05T15:59:46.443Z,29.23
2023-05-05T16:02:13.463Z,29.73
2023-05-05T16:04:40.530Z,30.12
2023-05-05T16:07:07.611Z,30.59
2023-05-05T16:09:34.995Z,30.91
2023-05-05T16:12:02.900Z,30.91
2023-05-05T16:14:32.190Z,30.97
2023-05-05T16:16:59.488Z,31.32
2023-05-05T16:19:30.238Z,31.02
2023-05-05T16:21:57.804Z,31.20
2023-05-05T16:24:24.830Z,31.10
2023-05-05T16:26:52.029Z,30.51
2023-05-05T16:29:19.482Z,30.54
2023-05-05T16:31:46.985Z,30.09
2023-05-05T16:34:14.839Z,29.51
2023-05-05T16:36:43.666Z,29.17
2023-05-05T16:39:12.040Z,29.49
2023-05-05T16:41:39.315Z,29.63
2023-05-05T16:44:07.118Z,29.31
2023-05-05T16:46:37.599Z,29.06
2023-05-05T16:49:04.865Z,29.47
2023-05-05T16:51:31.856Z,29.42
2023-05-05T16:53:59.130Z,29.32
2023-05-05T16:56:26.255Z,29.25
2023-05-05T16:58:53.727Z,30.09
2023-05-05T17:01:20.911Z,29.76
2023-05-05T17:03:47.953Z,30.12
2023-05-05T17:06:15.032Z,30.37
2023-05-05T17:08:42.078Z,31.08
2023-05-05T17:11:11.669Z,30.95
2023-05-05T17:13:39.031Z,31.45
2023-05-05T17:16:06.682Z,31.40
2023-05-05T17:18:33.692Z,31.84
2023-05-05T17:21:00.781Z,32.07
2023-05-05T17:23:28.102Z,32.18
2023-05-05T17:25:55.252Z,32.24
2023-05-05T17:28:22.568Z,32.33
2023-05-05T17:30:49.595Z,32.26
2023-05-05T17:33:20.901Z,32.51
2023-05-05T17:35:48.540Z,33.10
2023-05-05T17:38:15.761Z,32.47
2023-05-05T17:40:43.165Z,33.21
2023-05-05T17:43:10.081Z,33.22
2023-05-05T17:45:37.065Z,32.87
2023-05-05T17:48:04.360Z,33.77
2023-05-05T17:50:31.494Z,33.36
2023-05-05T17:52:58.457Z,33.19
2023-05-05T17:55:25.952Z,33.35
2023-05-05T17:57:53.025Z,33.55
2023-05-05T18:00:20.797Z,33.37
2023-05-05T18:02:52.838Z,33.75
2023-05-05T18:05:20.795Z,33.63
2023-05-05T18:07:47.873Z,33.82
2023-05-05T18:10:14.884Z,33.96
2023-05-05T18:12:42.136Z,33.78
2023-05-05T18:15:09.742Z,34.21
2023-05-05T18:17:37.541Z,34.55
2023-05-05T18:20:07.066Z,34.35
2023-05-05T18:22:34.562Z,34.31
2023-05-05T18:25:01.715Z,34.01
2023-05-05T18:27:32.665Z,34.18
2023-05-05T18:30:00.749Z,34.04
2023-05-05T18:32:28.066Z,34.15
2023-05-05T18:34:55.222Z,33.88
2023-05-05T18:37:22.363Z,34.17
2023-05-05T18:39:49.722Z,34.28
2023-05-05T18:42:16.761Z,34.44
2023-05-05T18:44:43.695Z,33.71
2023-05-05T18:47:10.808Z,34.35
2023-05-05T18:49:38.151Z,34.04
2023-05-05T18:52:05.237Z,33.83
2023-05-05T18:54:32.187Z,34.47
2023-05-05T18:56:59.448Z,33.99
2023-05-05T18:59:26.694Z,34.04
2023-05-05T19:01:53.649Z,34.24
2023-05-05T19:04:30.638Z,34.15
2023-05-05T19:06:58.378Z,34.13
2023-05-05T19:09:25.657Z,34.21
2023-05-05T19:11:52.698Z,34.35
2023-05-05T19:14:19.698Z,34.43
2023-05-05T19:16:47.068Z,34.46
2023-05-05T19:19:14.244Z,34.64
2023-05-05T19:21:41.351Z,34.90
2023-05-05T19:24:09.030Z,34.95
2023-05-05T19:26:36.139Z,35.04
2023-05-05T19:29:04.479Z,34.99
2023-05-05T19:31:31.775Z,35.34
2023-05-05T19:34:01.703Z,35.20
2023-05-05T19:36:30.295Z,35.22
2023-05-05T19:38:57.791Z,35.61
2023-05-05T19:41:24.844Z,35.85
2023-05-05T19:43:52.053Z,35.75
2023-05-05T19:46:19.922Z,35.76
2023-05-05T19:48:47.290Z,35.63
2023-05-05T19:51:14.221Z,35.95
2023-05-05T19:53:43.003Z,35.94
2023-05-05T19:56:10.444Z,35.86
2023-05-05T19:58:57.755Z,36.74
2023-05-05T20:01:25.506Z,36.30
2023-05-05T20:03:54.604Z,36.20
2023-05-05T20:06:22.660Z,36.41
2023-05-05T20:08:50.007Z,36.67
2023-05-05T20:11:17.399Z,36.31
2023-05-05T20:13:44.578Z,36.51
2023-05-05T20:16:12.319Z,36.72
2023-05-05T20:18:40.388Z,36.94
2023-05-05T20:21:07.524Z,36.94
2023-05-05T20:23:34.557Z,36.96
2023-05-05T20:26:01.750Z,36.89
2023-05-05T20:28:28.953Z,37.33
2023-05-05T20:30:56.219Z,37.40
2023-05-05T20:33:23.435Z,37.54
2023-05-05T20:35:50.634Z,37.69
2023-05-05T20:38:17.671Z,37.76
2023-05-05T20:40:45.160Z,37.91
2023-05-05T20:43:12.285Z,38.02
2023-05-05T20:45:39.209Z,38.14
2023-05-05T20:48:09.867Z,38.04
2023-05-05T20:50:41.841Z,38.83
2023-05-05T20:53:10.485Z,38.31
2023-05-05T20:55:37.600Z,38.79
2023-05-05T20:58:05.584Z,38.82
2023-05-05T21:00:32.664Z,38.81
2023-05-05T21:02:59.957Z,39.00
2023-05-05T21:05:27.019Z,39.00
2023-05-05T21:07:54.754Z,39.20
2023-05-05T21:10:22.215Z,39.51
2023-05-05T21:12:49.374Z,39.75
2023-05-05T21:15:16.957Z,39.64
2023-05-05T21:17:44.110Z,39.82
2023-05-05T21:20:12.337Z,39.90
2023-05-05T21:22:39.673Z,40.02
2023-05-05T21:25:13.044Z,40.86
2023-05-05T21:27:40.464Z,40.26
2023-05-05T21:30:10.666Z,40.39
2023-05-05T21:32:38.876Z,40.41
2023-05-05T21:35:07.678Z,40.57
2023-05-05T21:37:36.688Z,40.72
2023-05-05T21:40:04.039Z,40.82
2023-05-05T21:42:31.727Z,40.90
2023-05-05T21:44:58.732Z,41.05
2023-05-05T21:47:27.949Z,41.38
2023-05-05T21:49:54.986Z,41.18
2023-05-05T21:52:22.086Z,41.23
2023-05-05T21:54:49.280Z,41.53
2023-05-05T21:57:16.414Z,41.45
2023-05-05T21:59:43.464Z,41.60
2023-05-05T22:02:10.552Z,41.95
2023-05-05T22:04:37.765Z,42.18
2023-05-05T22:07:04.775Z,42.20
2023-05-05T22:09:31.841Z,42.31
2023-05-05T22:11:58.901Z,42.33
2023-05-05T22:14:25.928Z,42.53
2023-05-05T22:16:53.081Z,42.50
2023-05-05T22:19:20.329Z,42.44
2023-05-05T22:21:47.209Z,42.51
2023-05-05T22:24:14.375Z,42.53
2023-05-05T22:26:43.418Z,42.86
2023-05-05T22:29:11.212Z,43.13
2023-05-05T22:31:38.719Z,43.12
2023-05-05T22:34:05.945Z,43.05
2023-05-05T22:36:32.976Z,43.48
2023-05-05T22:38:59.995Z,43.47
2023-05-05T22:41:27.002Z,43.55
2023-05-05T22:43:54.157Z,43.69
2023-05-05T22:46:21.316Z,43.97
2023-05-05T22:48:49.202Z,43.78
2023-05-05T22:51:16.614Z,43.75
2023-05-05T22:53:43.526Z,43.94
2023-05-05T22:56:10.663Z,44.18
2023-05-05T22:58:37.859Z,44.44
2023-05-05T23:01:04.955Z,44.50
2023-05-05T23:03:32.226Z,44.40
2023-05-05T23:05:59.230Z,44.69
2023-05-05T23:08:26.231Z,44.97
2023-05-05T23:10:54.012Z,44.69
2023-05-05T23:13:21.064Z,45.06
2023-05-05T23:15:48.005Z,45.00
2023-05-05T23:18:14.986Z,45.13
2023-05-05T23:20:42.057Z,45.19
2023-05-05T23:23:09.277Z,45.26
2023-05-05T23:25:36.169Z,45.19
2023-05-05T23:28:03.295Z,45.56
2023-05-05T23:30:30.649Z,45.89
2023-05-05T23:32:58.107Z,45.65
2023-05-05T23:35:26.364Z,45.73
2023-05-05T23:37:53.321Z,45.74
2023-05-05T23:40:20.451Z,46.28
2023-05-05T23:42:47.405Z,46.42
2023-05-05T23:45:14.767Z,46.36
2023-05-05T23:47:42.300Z,46.35
2023-05-05T23:50:09.707Z,46.57
2023-05-05T23:52:36.598Z,46.59
2023-05-05T23:55:03.797Z,46.84
2023-05-05T23:57:30.886Z,46.96
2023-05-05T23:59:58.351Z,47.24
